Time;durP1;ratioP1;P1;durP2;ratioP2;P2;SDS_P1;SDS_P2;PMS_P1;PMS_P2;Temp;Humidity;BMP_temperature;BMP_pressure;BME280_temperature;BME280_humidity;BME280_pressure;Samples;Min_cycle;Max_cycle;Signal;HPM_P1;HPM_P2
2023/03/07 00:02:27;;;;;;;21.08;7.70;;;9.40;45.40;;;;;;6270595;28;20067;-73
2023/03/07 00:05:29;;;;;;;19.08;7.18;;;9.40;45.40;;;;;;6253118;28;20045;-72
2023/03/07 00:08:31;;;;;;;25.00;8.55;;;9.40;45.50;;;;;;6269923;28;20520;-72
2023/03/07 00:11:37;;;;;;;23.92;7.07;;;9.50;45.60;;;;;;6236049;28;20040;-73
2023/03/07 00:14:38;;;;;;;17.20;6.50;;;9.40;45.60;;;;;;6253124;28;20128;-71
2023/03/07 00:17:45;;;;;;;31.95;6.97;;;9.40;45.60;;;;;;6250930;28;20083;-72
2023/03/07 00:21:01;;;;;;;24.13;7.70;;;9.50;45.70;;;;;;6246427;28;20032;-72
2023/03/07 00:24:03;;;;;;;23.23;7.35;;;9.50;45.50;;;;;;6228908;28;20446;-72
2023/03/07 00:27:10;;;;;;;23.33;7.78;;;9.50;45.60;;;;;;6228158;28;20037;-73
2023/03/07 00:30:15;;;;;;;17.25;6.88;;;9.50;45.50;;;;;;6228108;28;20033;-73
2023/03/07 00:33:16;;;;;;;24.05;7.40;;;9.50;45.60;;;;;;6229568;28;20033;-73
2023/03/07 00:36:22;;;;;;;23.67;7.95;;;9.50;45.50;;;;;;6228909;28;20113;-74
2023/03/07 00:39:23;;;;;;;27.88;8.02;;;9.20;45.40;;;;;;6212946;28;20061;-72
2023/03/07 00:42:24;;;;;;;21.48;8.35;;;9.50;45.40;;;;;;6252072;28;20159;-73
2023/03/07 00:45:28;;;;;;;26.73;8.95;;;9.50;45.40;;;;;;6237171;28;20406;-72
2023/03/07 00:48:37;;;;;;;22.77;8.68;;;9.40;45.60;;;;;;6249782;22;20390;-74
2023/03/07 00:51:38;;;;;;;21.83;9.25;;;9.00;45.50;;;;;;6252467;28;20079;-73
2023/03/07 00:54:42;;;;;;;27.48;7.93;;;9.20;45.80;;;;;;6269668;28;20028;-73
2023/03/07 00:57:43;;;;;;;25.50;9.20;;;9.10;45.80;;;;;;6251613;28;20478;-73
2023/03/07 01:00:47;;;;;;;19.77;7.95;;;9.10;46.00;;;;;;6227103;28;20371;-71
2023/03/07 01:03:48;;;;;;;21.38;9.40;;;9.00;46.10;;;;;;6227051;28;20366;-72
2023/03/07 01:06:50;;;;;;;29.10;8.10;;;9.00;46.10;;;;;;6226827;28;20029;-73
2023/03/07 01:09:54;;;;;;;28.35;8.10;;;9.00;46.20;;;;;;6227069;28;20426;-73
2023/03/07 01:12:55;;;;;;;22.40;8.13;;;9.00;46.30;;;;;;6244514;28;20041;-72
2023/03/07 01:16:41;;;;;;;28.40;9.52;;;8.90;46.30;;;;;;6210529;28;20507;-72
2023/03/07 01:19:45;;;;;;;27.23;8.68;;;8.90;46.30;;;;;;6127656;29;20109;-73
2023/03/07 01:22:49;;;;;;;22.17;7.97;;;8.90;46.50;;;;;;6144377;29;20043;-73
2023/03/07 01:25:59;;;;;;;21.52;7.85;;;8.80;46.50;;;;;;6143847;28;20368;-72
2023/03/07 01:29:05;;;;;;;21.00;8.45;;;8.70;46.70;;;;;;6127873;29;20047;-72
2023/03/07 01:32:12;;;;;;;16.45;7.20;;;8.70;46.80;;;;;;6144485;29;20054;-72
2023/03/07 01:35:17;;;;;;;25.73;9.50;;;8.60;46.80;;;;;;6144209;29;20315;-73
2023/03/07 01:38:21;;;;;;;30.70;8.52;;;8.60;47.00;;;;;;6144134;29;20500;-73
2023/03/07 01:41:23;;;;;;;19.52;7.82;;;8.50;47.00;;;;;;6144216;29;20031;-72
2023/03/07 01:44:28;;;;;;;22.80;8.60;;;8.50;47.00;;;;;;6128677;29;20437;-71
2023/03/07 01:47:33;;;;;;;14.45;6.82;;;8.50;47.10;;;;;;6128110;29;20038;-71
2023/03/07 01:50:35;;;;;;;17.67;6.65;;;8.50;47.20;;;;;;6144119;29;20449;-73
2023/03/07 01:53:48;;;;;;;26.98;8.90;;;8.50;47.30;;;;;;6144389;29;20035;-73
2023/03/07 01:56:51;;;;;;;20.27;7.47;;;8.40;47.40;;;;;;6217229;28;20041;-74
2023/03/07 02:00:04;;;;;;;21.60;7.18;;;8.40;47.50;;;;;;6226199;28;20477;-72
2023/03/07 02:03:37;;;;;;;21.40;7.07;;;8.30;47.50;;;;;;6227747;28;20046;-72
2023/03/07 02:06:39;;;;;;;21.33;7.78;;;8.30;47.70;;;;;;6225767;28;20565;-73
2023/03/07 02:09:44;;;;;;;19.88;6.25;;;8.30;47.80;;;;;;6207968;28;20044;-72
2023/03/07 02:12:45;;;;;;;18.50;7.40;;;8.30;47.90;;;;;;6224831;28;20084;-73
2023/03/07 02:15:49;;;;;;;13.88;6.13;;;8.30;47.90;;;;;;6225506;28;20029;-70
2023/03/07 02:18:50;;;;;;;15.32;6.47;;;8.30;47.90;;;;;;6242708;28;20056;-74
2023/03/07 02:22:16;;;;;;;16.65;6.65;;;8.20;47.90;;;;;;6224288;28;20109;-71
2023/03/07 02:25:34;;;;;;;21.45;6.65;;;8.20;47.80;;;;;;6224380;28;20111;-72
2023/03/07 02:28:38;;;;;;;19.85;7.32;;;8.30;47.80;;;;;;6241406;28;20044;-73
2023/03/07 02:31:41;;;;;;;21.40;7.25;;;8.30;47.80;;;;;;6240392;28;20136;-72
2023/03/07 02:34:42;;;;;;;28.23;8.90;;;8.20;48.10;;;;;;6228071;28;20052;-73
2023/03/07 02:38:00;;;;;;;18.77;7.18;;;8.20;48.50;;;;;;6245800;28;20049;-71
2023/03/07 02:41:02;;;;;;;21.80;7.13;;;8.10;48.90;;;;;;6249474;28;20700;-72
2023/03/07 02:44:05;;;;;;;17.88;7.28;;;8.10;49.00;;;;;;6245941;28;20072;-72
2023/03/07 02:47:07;;;;;;;18.25;5.80;;;8.00;48.90;;;;;;6245713;28;20090;-71
2023/03/07 02:50:10;;;;;;;15.32;5.63;;;8.00;48.90;;;;;;6229186;28;20082;-72
2023/03/07 02:53:14;;;;;;;15.40;5.80;;;8.00;48.80;;;;;;6229308;28;20040;-74
2023/03/07 02:56:15;;;;;;;21.92;7.63;;;8.00;48.70;;;;;;6229169;28;20041;-72
2023/03/07 02:59:17;;;;;;;18.38;6.47;;;8.00;48.60;;;;;;6229874;28;20370;-72
2023/03/07 03:02:18;;;;;;;19.55;6.78;;;8.00;48.60;;;;;;6257723;28;20026;-72
2023/03/07 03:05:20;;;;;;;21.08;5.75;;;7.90;48.50;;;;;;6241240;28;20033;-72
2023/03/07 03:08:21;;;;;;;23.98;7.38;;;7.90;48.40;;;;;;6234467;28;20089;-71
2023/03/07 03:11:22;;;;;;;19.02;7.13;;;7.90;48.40;;;;;;6229018;28;20087;-72
2023/03/07 03:14:23;;;;;;;24.63;6.75;;;7.90;48.50;;;;;;6228616;28;20398;-71
2023/03/07 03:17:24;;;;;;;21.30;6.97;;;7.80;48.40;;;;;;6245852;28;20496;-72
2023/03/07 03:20:26;;;;;;;20.52;7.03;;;7.80;48.60;;;;;;6228160;28;20041;-73
2023/03/07 03:23:28;;;;;;;21.52;6.65;;;7.70;48.60;;;;;;6228302;28;20032;-72
2023/03/07 03:26:29;;;;;;;18.13;7.22;;;7.70;48.70;;;;;;6236664;28;20437;-72
2023/03/07 03:29:30;;;;;;;14.52;6.53;;;7.60;48.80;;;;;;6219887;28;20120;-72
2023/03/07 03:32:38;;;;;;;21.48;6.57;;;7.60;49.00;;;;;;6220112;28;20030;-71
2023/03/07 03:35:42;;;;;;;21.92;7.35;;;7.60;49.60;;;;;;6219781;28;20030;-72
2023/03/07 03:38:44;;;;;;;21.13;5.88;;;7.60;49.00;;;;;;6219787;28;20088;-71
2023/03/07 03:41:45;;;;;;;17.50;5.82;;;7.50;48.90;;;;;;6221309;28;20135;-73
2023/03/07 03:44:48;;;;;;;17.15;6.15;;;7.50;48.90;;;;;;6219699;28;20093;-71
2023/03/07 03:47:49;;;;;;;19.75;6.78;;;7.50;48.90;;;;;;6210366;28;20065;-72
2023/03/07 03:51:06;;;;;;;15.27;6.22;;;7.50;49.00;;;;;;6227552;28;20030;-72
2023/03/07 03:54:08;;;;;;;15.52;5.85;;;7.60;49.00;;;;;;6227757;28;20043;-72
2023/03/07 03:57:14;;;;;;;13.88;4.90;;;7.60;48.90;;;;;;6227238;28;20103;-72
2023/03/07 04:00:18;;;;;;;16.90;6.45;;;7.50;48.90;;;;;;6227676;28;20026;-71
2023/03/07 04:03:20;;;;;;;16.30;6.20;;;7.50;48.90;;;;;;6210950;28;20025;-73
2023/03/07 04:06:25;;;;;;;12.02;5.65;;;7.50;49.00;;;;;;6227643;28;20312;-73
2023/03/07 04:09:26;;;;;;;13.48;5.78;;;7.40;49.10;;;;;;6227338;28;20032;-71
2023/03/07 04:12:27;;;;;;;19.02;6.68;;;7.40;49.20;;;;;;6245160;28;20081;-72
2023/03/07 04:15:29;;;;;;;20.20;7.72;;;7.30;49.30;;;;;;6245085;28;20033;-72
2023/03/07 04:18:30;;;;;;;16.45;6.43;;;7.30;49.40;;;;;;6218566;28;20029;-72
2023/03/07 04:21:31;;;;;;;21.35;6.07;;;7.30;49.50;;;;;;6203215;28;20045;-71
2023/03/07 04:24:33;;;;;;;15.07;5.45;;;7.30;49.50;;;;;;6203077;28;20041;-73
2023/03/07 04:27:35;;;;;;;26.42;7.60;;;7.30;49.60;;;;;;6202918;28;20477;-72
2023/03/07 04:30:37;;;;;;;16.95;5.90;;;7.20;49.60;;;;;;6202572;28;20113;-71
2023/03/07 04:33:38;;;;;;;21.55;6.93;;;7.20;49.70;;;;;;6221072;28;20119;-72
2023/03/07 04:36:39;;;;;;;16.77;5.78;;;7.20;49.90;;;;;;6202497;28;20094;-72
2023/03/07 04:39:40;;;;;;;18.23;6.47;;;7.20;50.00;;;;;;6201849;28;20083;-72
2023/03/07 04:42:43;;;;;;;13.20;6.40;;;7.20;50.00;;;;;;6202003;28;20030;-71
2023/03/07 04:45:45;;;;;;;19.75;7.63;;;7.20;50.00;;;;;;6201816;28;20040;-73
2023/03/07 04:48:47;;;;;;;20.17;8.20;;;7.20;50.10;;;;;;6216147;28;20049;-72
2023/03/07 04:51:48;;;;;;;26.25;7.53;;;7.20;50.30;;;;;;6243944;28;20033;-73
2023/03/07 04:54:50;;;;;;;24.25;8.85;;;7.10;50.60;;;;;;6244105;28;20085;-73
2023/03/07 04:57:51;;;;;;;17.98;7.18;;;7.10;50.90;;;;;;6226033;28;20091;-71
2023/03/07 05:00:55;;;;;;;24.15;7.38;;;7.10;51.10;;;;;;6225924;28;20109;-72
2023/03/07 05:03:56;;;;;;;25.58;7.35;;;7.00;51.20;;;;;;6226798;28;20052;-70
2023/03/07 05:06:58;;;;;;;18.25;7.18;;;7.00;51.50;;;;;;6226063;28;20100;-74
2023/03/07 05:09:59;;;;;;;18.52;8.50;;;6.90;51.50;;;;;;6225777;28;20033;-72
2023/03/07 05:13:00;;;;;;;17.67;6.25;;;6.90;51.80;;;;;;6267460;28;20025;-72
2023/03/07 05:16:01;;;;;;;17.65;7.10;;;6.80;51.90;;;;;;6268440;28;20543;-70
2023/03/07 05:19:04;;;;;;;18.48;6.50;;;6.80;51.90;;;;;;6229237;28;20362;-71
2023/03/07 05:22:06;;;;;;;18.90;7.00;;;6.80;52.00;;;;;;6202515;28;20057;-70
2023/03/07 05:25:08;;;;;;;21.38;7.28;;;6.80;52.70;;;;;;6222126;28;20208;-72
2023/03/07 05:28:09;;;;;;;23.75;7.68;;;6.80;52.10;;;;;;6193403;28;20112;-73
2023/03/07 05:31:10;;;;;;;20.75;7.50;;;6.80;52.20;;;;;;6206997;28;20563;-71
2023/03/07 05:34:12;;;;;;;18.80;7.55;;;6.70;52.40;;;;;;6202151;28;20483;-73
2023/03/07 05:37:14;;;;;;;15.95;7.88;;;6.70;52.50;;;;;;6201724;28;20093;-72
2023/03/07 05:40:17;;;;;;;25.00;8.52;;;6.70;52.80;;;;;;6201838;28;20026;-72
2023/03/07 05:43:20;;;;;;;19.27;7.50;;;6.60;53.00;;;;;;6202689;28;20068;-72
2023/03/07 05:46:21;;;;;;;20.27;7.72;;;6.20;52.80;;;;;;6201578;28;20034;-73
2023/03/07 05:49:23;;;;;;;21.33;7.20;;;6.50;53.10;;;;;;6204846;28;20191;-72
2023/03/07 05:52:27;;;;;;;20.73;7.75;;;6.50;53.10;;;;;;6208760;28;20060;-72
2023/03/07 05:55:28;;;;;;;18.92;6.70;;;6.50;53.10;;;;;;6208199;28;20521;-73
2023/03/07 05:58:30;;;;;;;16.35;7.70;;;6.50;53.10;;;;;;6224276;28;20034;-72
2023/03/07 06:01:31;;;;;;;33.50;10.05;;;6.50;53.20;;;;;;6242903;28;20030;-72
2023/03/07 06:04:32;;;;;;;20.95;8.20;;;6.40;53.40;;;;;;6224867;28;20040;-73
2023/03/07 06:07:33;;;;;;;23.10;8.82;;;6.40;53.50;;;;;;6234380;28;20060;-72
2023/03/07 06:10:35;;;;;;;19.90;7.75;;;6.40;53.60;;;;;;6250018;28;20037;-71
2023/03/07 06:13:37;;;;;;;24.42;7.55;;;6.30;53.50;;;;;;6253862;28;20435;-73
2023/03/07 06:16:39;;;;;;;20.48;8.10;;;6.40;53.60;;;;;;6254308;28;20043;-73
2023/03/07 06:19:40;;;;;;;21.67;8.50;;;6.40;53.60;;;;;;6227867;28;20048;-73
2023/03/07 06:22:41;;;;;;;15.60;7.20;;;6.40;53.70;;;;;;6215694;28;20030;-71
2023/03/07 06:25:42;;;;;;;21.45;8.43;;;6.40;53.60;;;;;;6213480;28;20052;-72
2023/03/07 06:28:44;;;;;;;26.65;8.32;;;6.40;53.70;;;;;;6247450;28;20720;-72
2023/03/07 06:31:46;;;;;;;17.42;8.75;;;6.40;53.70;;;;;;6249758;28;20473;-74
2023/03/07 06:34:47;;;;;;;18.13;7.60;;;6.40;53.70;;;;;;6232249;28;20136;-74
2023/03/07 06:37:50;;;;;;;18.38;7.47;;;6.40;53.70;;;;;;6242850;28;20084;-72
2023/03/07 06:40:55;;;;;;;17.35;7.25;;;6.30;53.80;;;;;;6241940;28;20034;-73
2023/03/07 06:43:57;;;;;;;23.35;8.85;;;6.20;53.70;;;;;;6233112;28;20502;-72
2023/03/07 06:47:01;;;;;;;18.85;6.25;;;6.40;53.90;;;;;;6191896;28;20068;-74
2023/03/07 06:50:04;;;;;;;15.40;6.57;;;6.30;53.80;;;;;;6248283;28;20412;-72
2023/03/07 06:53:07;;;;;;;21.85;7.72;;;6.30;53.80;;;;;;6248800;28;20026;-73
2023/03/07 06:56:08;;;;;;;16.77;7.10;;;6.30;53.90;;;;;;6231233;28;20065;-74
2023/03/07 06:59:10;;;;;;;16.92;6.68;;;6.30;53.90;;;;;;6213594;28;20033;-74
2023/03/07 07:02:14;;;;;;;15.48;6.95;;;6.30;54.00;;;;;;6230107;28;20438;-72
2023/03/07 07:05:15;;;;;;;16.45;7.75;;;6.20;54.10;;;;;;6251015;28;20025;-73
2023/03/07 07:08:16;;;;;;;18.45;7.20;;;6.20;54.20;;;;;;6253496;28;20025;-72
2023/03/07 07:11:18;;;;;;;16.27;6.47;;;6.20;54.30;;;;;;6253424;28;20442;-72
2023/03/07 07:14:20;;;;;;;19.40;7.03;;;6.20;54.30;;;;;;6253739;28;20074;-73
2023/03/07 07:17:22;;;;;;;22.27;9.50;;;6.20;54.30;;;;;;6271710;28;20029;-71
2023/03/07 07:20:23;;;;;;;25.45;7.82;;;6.20;54.40;;;;;;6244152;28;20037;-72
2023/03/07 07:23:27;;;;;;;19.98;7.10;;;6.30;54.40;;;;;;6227959;28;20044;-72
2023/03/07 07:26:29;;;;;;;16.00;6.93;;;6.30;54.40;;;;;;6228839;28;20037;-72
2023/03/07 07:29:32;;;;;;;38.88;8.25;;;6.30;54.40;;;;;;6246946;28;20061;-73
2023/03/07 07:32:34;;;;;;;16.58;7.78;;;6.40;54.40;;;;;;6228317;28;20029;-74
2023/03/07 07:35:38;;;;;;;22.02;8.65;;;6.40;54.40;;;;;;6228957;28;20431;-73
2023/03/07 07:38:39;;;;;;;24.85;9.18;;;6.40;54.30;;;;;;6211780;28;20029;-72
2023/03/07 07:41:40;;;;;;;17.55;6.93;;;6.50;54.40;;;;;;6228269;28;20211;-73
2023/03/07 07:44:42;;;;;;;28.00;7.18;;;6.60;54.40;;;;;;6247605;28;20026;-73
2023/03/07 07:47:48;;;;;;;29.15;8.75;;;6.70;54.30;;;;;;6248836;28;20037;-70
2023/03/07 07:50:49;;;;;;;31.85;8.45;;;6.80;54.10;;;;;;6232432;28;20049;-73
2023/03/07 07:53:50;;;;;;;24.33;8.75;;;6.90;53.90;;;;;;6229535;28;20076;-73
2023/03/07 07:56:52;;;;;;;23.17;8.00;;;7.10;53.80;;;;;;6212594;28;20421;-73
2023/03/07 07:59:54;;;;;;;28.67;8.40;;;7.30;53.50;;;;;;6220180;28;20102;-72
2023/03/07 08:02:57;;;;;;;24.20;9.48;;;7.50;53.10;;;;;;6252326;28;20630;-73
2023/03/07 08:05:58;;;;;;;22.85;9.35;;;7.60;52.80;;;;;;6270189;28;20032;-73
2023/03/07 08:08:59;;;;;;;22.10;7.70;;;7.70;52.40;;;;;;6269916;28;20461;-73
2023/03/07 08:12:00;;;;;;;23.50;9.35;;;7.80;52.00;;;;;;6251911;28;20037;-72
2023/03/07 08:15:01;;;;;;;23.13;8.55;;;7.90;51.90;;;;;;6260387;28;20030;-72
2023/03/07 08:18:02;;;;;;;21.10;8.52;;;8.00;51.80;;;;;;6244420;28;20389;-73
2023/03/07 08:21:04;;;;;;;38.30;9.35;;;8.20;51.60;;;;;;6244784;28;20670;-73
2023/03/07 08:24:05;;;;;;;19.95;7.50;;;8.30;51.20;;;;;;6227073;28;20041;-73
2023/03/07 08:27:06;;;;;;;30.90;9.48;;;8.30;50.80;;;;;;6244085;28;20099;-73
2023/03/07 08:30:08;;;;;;;24.08;8.73;;;8.40;50.70;;;;;;6244645;28;20432;-74
2023/03/07 08:33:09;;;;;;;24.65;8.88;;;8.50;50.60;;;;;;6244801;28;20037;-72
2023/03/07 08:36:10;;;;;;;20.98;8.85;;;8.60;50.40;;;;;;6225831;28;20034;-71
2023/03/07 08:39:12;;;;;;;26.33;8.80;;;8.70;50.30;;;;;;6245002;28;20109;-74
2023/03/07 08:42:13;;;;;;;44.88;9.18;;;8.80;49.90;;;;;;6244450;28;20423;-72
2023/03/07 08:45:14;;;;;;;20.60;8.35;;;9.00;49.60;;;;;;6210281;28;20025;-73
2023/03/07 08:48:15;;;;;;;19.77;8.13;;;9.10;48.80;;;;;;6243579;28;20386;-72
2023/03/07 08:51:18;;;;;;;28.60;9.48;;;9.20;48.50;;;;;;6244125;28;20116;-74
2023/03/07 08:54:19;;;;;;;25.88;8.57;;;9.30;48.40;;;;;;6243463;28;20423;-71
2023/03/07 08:57:20;;;;;;;20.38;8.18;;;9.40;48.40;;;;;;6225671;28;20029;-72
2023/03/07 09:00:22;;;;;;;19.25;7.78;;;9.50;48.30;;;;;;6243920;28;20148;-73
2023/03/07 09:03:23;;;;;;;26.05;8.35;;;9.70;48.00;;;;;;6226111;28;20040;-73
2023/03/07 09:06:24;;;;;;;24.92;9.05;;;9.80;47.90;;;;;;6225970;28;20025;-73
2023/03/07 09:09:26;;;;;;;24.00;8.48;;;10.00;47.80;;;;;;6243422;28;20472;-72
2023/03/07 09:12:27;;;;;;;19.08;6.95;;;10.10;47.60;;;;;;6207149;28;20044;-73
2023/03/07 09:15:28;;;;;;;25.27;7.90;;;10.30;47.10;;;;;;6219270;28;20030;-72
2023/03/07 09:18:29;;;;;;;20.20;7.85;;;10.40;46.20;;;;;;6218591;28;20026;-71
2023/03/07 09:21:30;;;;;;;27.65;10.23;;;10.40;45.80;;;;;;6219251;28;20120;-72
2023/03/07 09:24:31;;;;;;;21.15;8.15;;;10.50;45.70;;;;;;6217986;28;20036;-72
2023/03/07 09:27:32;;;;;;;26.42;8.55;;;10.60;45.30;;;;;;6218844;28;20030;-72
2023/03/07 09:30:34;;;;;;;18.90;7.53;;;10.60;45.20;;;;;;6217315;28;20065;-73
2023/03/07 09:33:35;;;;;;;26.50;8.85;;;10.70;45.00;;;;;;6223993;28;20113;-72
2023/03/07 09:36:36;;;;;;;30.33;8.32;;;10.80;45.10;;;;;;6243259;28;20027;-73
2023/03/07 09:39:37;;;;;;;24.55;9.02;;;10.90;45.00;;;;;;6225032;28;20032;-72
2023/03/07 09:43:09;;;;;;;39.45;9.13;;;11.20;45.50;;;;;;6208834;28;20155;-73
2023/03/07 09:46:40;;;;;;;19.83;7.57;;;11.40;44.40;;;;;;6225011;28;20025;-72
2023/03/07 09:49:48;;;;;;;21.83;8.60;;;11.60;44.00;;;;;;6242845;28;20119;-72
2023/03/07 09:52:52;;;;;;;18.10;7.85;;;11.60;43.30;;;;;;6236494;28;20057;-71
2023/03/07 09:55:57;;;;;;;19.52;7.30;;;11.70;43.00;;;;;;6267444;28;20098;-71
2023/03/07 09:59:23;;;;;;;17.80;6.28;;;11.70;42.50;;;;;;6267861;28;20064;-72
2023/03/07 10:02:33;;;;;;;23.35;7.10;;;11.80;42.00;;;;;;6250890;28;20036;-73
2023/03/07 10:05:41;;;;;;;17.63;5.97;;;11.90;41.70;;;;;;6255046;28;20036;-71
2023/03/07 10:08:42;;;;;;;19.25;6.95;;;12.10;41.20;;;;;;6267302;28;20116;-71
2023/03/07 10:12:08;;;;;;;27.55;7.25;;;12.20;40.80;;;;;;6244334;28;20022;-72
2023/03/07 10:15:17;;;;;;;17.77;6.43;;;12.20;40.40;;;;;;6242975;28;20493;-71
2023/03/07 10:18:56;;;;;;;19.90;6.57;;;12.20;39.90;;;;;;6241580;28;20021;-74
2023/03/07 10:22:04;;;;;;;17.98;6.93;;;12.10;40.00;;;;;;6242247;28;20378;-73
2023/03/07 10:25:39;;;;;;;24.73;8.15;;;12.10;40.20;;;;;;6242252;28;20032;-73
2023/03/07 10:28:43;;;;;;;20.83;7.50;;;12.20;40.40;;;;;;6241856;28;20026;-72
2023/03/07 10:31:54;;;;;;;19.50;6.85;;;12.20;40.20;;;;;;6242610;28;20024;-71
2023/03/07 10:35:01;;;;;;;20.13;7.70;;;12.30;40.00;;;;;;6226357;28;20366;-71
2023/03/07 10:38:08;;;;;;;18.02;7.63;;;12.40;39.90;;;;;;6228287;28;20378;-73
2023/03/07 10:41:16;;;;;;;25.58;7.82;;;12.70;39.60;;;;;;6238501;28;20125;-72
2023/03/07 10:44:19;;;;;;;21.83;7.20;;;12.90;39.20;;;;;;6232495;28;20033;-73
2023/03/07 10:47:25;;;;;;;15.65;7.35;;;13.10;39.00;;;;;;6224732;28;20088;-73
2023/03/07 10:50:55;;;;;;;16.95;7.30;;;13.30;38.50;;;;;;6246966;28;20127;-73
2023/03/07 10:53:57;;;;;;;21.98;6.60;;;13.40;38.20;;;;;;6266909;28;20025;-72
2023/03/07 10:57:14;;;;;;;18.27;7.43;;;13.60;38.20;;;;;;6248278;28;20122;-77
2023/03/07 11:00:17;;;;;;;20.95;7.82;;;13.80;37.90;;;;;;6269940;28;20047;-73
2023/03/07 11:03:30;;;;;;;22.88;7.32;;;14.00;37.70;;;;;;6231425;28;20044;-74
2023/03/07 11:06:52;;;;;;;24.77;7.93;;;14.30;37.60;;;;;;6228878;28;20064;-74
2023/03/07 11:09:55;;;;;;;21.67;7.47;;;14.50;37.10;;;;;;6229074;28;20033;-73
2023/03/07 11:12:56;;;;;;;18.20;7.38;;;14.50;36.90;;;;;;6229699;28;20139;-75
2023/03/07 11:16:17;;;;;;;23.65;8.10;;;14.60;37.00;;;;;;6247516;28;20029;-73
2023/03/07 11:19:30;;;;;;;21.65;6.82;;;14.80;36.90;;;;;;6245733;28;20467;-74
2023/03/07 11:22:32;;;;;;;30.13;7.40;;;14.80;36.60;;;;;;6228224;28;20033;-72
2023/03/07 11:25:35;;;;;;;21.17;6.88;;;14.90;36.40;;;;;;6246123;28;20398;-74
2023/03/07 11:28:36;;;;;;;25.10;8.50;;;14.90;35.90;;;;;;6245791;28;20071;-73
2023/03/07 11:31:57;;;;;;;16.35;7.07;;;15.10;36.10;;;;;;6246086;28;20033;-71
2023/03/07 11:35:27;;;;;;;17.02;7.00;;;15.50;35.40;;;;;;6228775;28;20026;-71
2023/03/07 11:38:56;;;;;;;20.48;6.47;;;15.60;34.90;;;;;;6228202;28;20038;-73
2023/03/07 11:42:11;;;;;;;19.20;7.38;;;15.60;34.20;;;;;;6246538;28;20033;-73
2023/03/07 11:45:33;;;;;;;15.02;6.88;;;15.60;34.10;;;;;;6246530;28;20033;-71
2023/03/07 11:49:04;;;;;;;17.80;7.38;;;15.60;34.20;;;;;;6232795;28;20033;-73
2023/03/07 11:52:11;;;;;;;22.60;7.65;;;15.60;34.10;;;;;;6221389;28;20533;-73
2023/03/07 11:55:26;;;;;;;15.88;6.10;;;15.60;34.10;;;;;;6221117;28;20336;-72
2023/03/07 11:58:30;;;;;;;14.93;6.57;;;16.00;33.90;;;;;;6203348;28;20072;-73
2023/03/07 12:01:57;;;;;;;24.17;8.27;;;16.20;33.10;;;;;;6242316;28;20033;-73
2023/03/07 12:05:07;;;;;;;16.63;6.47;;;16.50;32.80;;;;;;6227142;28;20033;-72
2023/03/07 12:08:34;;;;;;;16.27;7.10;;;17.00;32.30;;;;;;6226561;28;20051;-73
2023/03/07 12:12:03;;;;;;;23.60;7.38;;;17.60;31.50;;;;;;6210905;28;20037;-73
2023/03/07 12:15:22;;;;;;;19.15;7.10;;;17.90;30.30;;;;;;6245023;28;20041;-73
2023/03/07 12:18:47;;;;;;;19.00;7.47;;;18.30;30.20;;;;;;6245812;28;20402;-73
2023/03/07 12:22:04;;;;;;;17.80;7.38;;;18.60;29.70;;;;;;6245303;28;20553;-73
2023/03/07 12:25:21;;;;;;;16.25;6.75;;;19.00;29.90;;;;;;6227376;28;20080;-73
2023/03/07 12:28:41;;;;;;;25.13;7.15;;;19.00;29.00;;;;;;6245130;28;20040;-71
2023/03/07 12:31:46;;;;;;;13.40;6.47;;;18.80;29.20;;;;;;6227718;28;20478;-74
2023/03/07 12:35:08;;;;;;;18.08;6.70;;;18.80;29.10;;;;;;6245732;28;20113;-72
2023/03/07 12:38:39;;;;;;;18.27;7.15;;;19.00;29.30;;;;;;6217887;28;20320;-72
2023/03/07 12:42:04;;;;;;;17.50;7.45;;;19.60;28.40;;;;;;6128385;29;20409;-72
2023/03/07 12:45:21;;;;;;;21.63;6.07;;;20.10;28.20;;;;;;6131531;29;20055;-72
2023/03/07 12:48:47;;;;;;;17.20;5.88;;;20.90;27.60;;;;;;6136944;29;20035;-73
2023/03/07 12:51:54;;;;;;;16.23;6.50;;;21.10;26.80;;;;;;6145586;29;20496;-72
2023/03/07 12:55:30;;;;;;;17.10;6.03;;;20.80;26.90;;;;;;6129218;29;20080;-74
2023/03/07 12:58:54;;;;;;;13.65;6.03;;;20.30;27.50;;;;;;6114796;29;20075;-73
2023/03/07 13:02:03;;;;;;;18.58;5.18;;;20.10;27.90;;;;;;6128358;29;20035;-73
2023/03/07 13:05:04;;;;;;;13.05;5.25;;;20.10;28.20;;;;;;6128703;29;20043;-72
2023/03/07 13:08:06;;;;;;;9.50;3.28;;;20.00;28.00;;;;;;6144442;29;20093;-73
2023/03/07 13:11:23;;;;;;;5.05;2.60;;;20.00;27.90;;;;;;6129512;29;20114;-75
2023/03/07 13:14:47;;;;;;;15.65;5.10;;;19.80;27.50;;;;;;6145112;29;20511;-74
2023/03/07 13:17:48;;;;;;;11.23;5.07;;;19.50;27.80;;;;;;6161753;28;20529;-73
2023/03/07 13:21:10;;;;;;;9.73;3.88;;;19.10;28.20;;;;;;6243664;28;20106;-72
2023/03/07 13:24:34;;;;;;;13.65;4.18;;;18.70;28.60;;;;;;6226340;28;20532;-73
2023/03/07 13:27:45;;;;;;;11.57;5.05;;;18.30;29.00;;;;;;6243605;28;20128;-73
2023/03/07 13:31:11;;;;;;;17.92;5.28;;;17.90;29.50;;;;;;6225682;28;20475;-73
2023/03/07 13:34:51;;;;;;;14.73;5.03;;;17.60;30.00;;;;;;6225010;28;20033;-71
2023/03/07 13:38:16;;;;;;;14.57;4.70;;;17.30;30.50;;;;;;6130421;29;20027;-73
2023/03/07 13:41:47;;;;;;;10.95;4.57;;;17.20;30.90;;;;;;6143257;29;20028;-72
2023/03/07 13:44:48;;;;;;;8.73;3.65;;;17.00;31.20;;;;;;6143509;29;20045;-74
2023/03/07 13:47:49;;;;;;;18.90;4.40;;;16.90;31.30;;;;;;6143262;29;20365;-72
2023/03/07 13:50:50;;;;;;;13.73;4.15;;;16.80;31.30;;;;;;6143569;29;20079;-73
2023/03/07 13:53:55;;;;;;;14.30;5.47;;;16.80;31.50;;;;;;6143322;29;20155;-73
2023/03/07 13:56:56;;;;;;;15.10;4.95;;;16.70;32.00;;;;;;6143447;29;20047;-73
2023/03/07 13:59:57;;;;;;;15.05;6.40;;;16.50;32.20;;;;;;6143575;29;20540;-74
2023/03/07 14:02:58;;;;;;;20.80;5.75;;;16.30;32.80;;;;;;6143232;29;20063;-73
2023/03/07 14:06:07;;;;;;;15.88;6.03;;;16.10;34.30;;;;;;6127205;29;20083;-72
2023/03/07 14:09:14;;;;;;;15.82;6.18;;;15.90;34.60;;;;;;6219595;28;20753;-72
2023/03/07 14:12:54;;;;;;;16.67;6.93;;;15.70;35.50;;;;;;6243066;28;20064;-73
2023/03/07 14:16:16;;;;;;;24.15;6.68;;;15.50;36.20;;;;;;6224786;28;20096;-73
2023/03/07 14:19:50;;;;;;;15.68;6.32;;;15.40;36.70;;;;;;6243512;28;20045;-73
2023/03/07 14:23:21;;;;;;;28.30;6.68;;;15.30;37.10;;;;;;6104385;29;20040;-73
2023/03/07 14:26:42;;;;;;;13.43;6.25;;;15.20;37.20;;;;;;6104462;29;20043;-73
2023/03/07 14:29:55;;;;;;;14.02;6.10;;;15.20;37.50;;;;;;6120166;29;20122;-72
2023/03/07 14:32:58;;;;;;;15.20;6.40;;;15.10;37.90;;;;;;6121078;29;20102;-73
2023/03/07 14:36:01;;;;;;;16.40;6.00;;;15.00;38.20;;;;;;6124260;29;20051;-72
2023/03/07 14:39:03;;;;;;;20.02;6.30;;;15.00;38.50;;;;;;6124901;29;20051;-73
2023/03/07 14:42:21;;;;;;;22.55;6.35;;;14.90;38.90;;;;;;6125921;29;20044;-73
2023/03/07 14:45:25;;;;;;;17.08;5.72;;;14.90;39.30;;;;;;6123929;29;20127;-72
2023/03/07 14:48:49;;;;;;;16.13;6.13;;;14.90;39.40;;;;;;6123525;29;20135;-73
2023/03/07 14:51:50;;;;;;;12.25;5.75;;;14.80;39.50;;;;;;6124130;29;20047;-73
2023/03/07 14:54:51;;;;;;;11.40;4.97;;;14.80;39.50;;;;;;6107759;29;20035;-73
2023/03/07 14:57:54;;;;;;;12.95;5.65;;;14.90;39.80;;;;;;6123269;29;20526;-73
2023/03/07 15:01:14;;;;;;;16.77;5.47;;;14.80;40.20;;;;;;6247338;28;20117;-73
2023/03/07 15:04:21;;;;;;;21.73;5.85;;;14.80;40.40;;;;;;6247649;28;20025;-73
2023/03/07 15:07:22;;;;;;;12.60;4.32;;;14.80;40.50;;;;;;6246898;28;20114;-72
2023/03/07 15:10:44;;;;;;;10.05;3.70;;;14.80;41.00;;;;;;6246980;28;20430;-71
2023/03/07 15:14:05;;;;;;;14.40;3.97;;;14.90;41.70;;;;;;6247838;28;20040;-71
2023/03/07 15:17:15;;;;;;;12.45;4.43;;;14.90;42.30;;;;;;6230225;28;20069;-75
2023/03/07 15:20:21;;;;;;;13.25;5.28;;;14.90;42.50;;;;;;6247530;28;20052;-72
2023/03/07 15:23:26;;;;;;;13.35;6.15;;;14.80;43.00;;;;;;6249394;28;20466;-72
2023/03/07 15:26:28;;;;;;;14.93;5.80;;;14.70;43.40;;;;;;6253143;28;20040;-72
2023/03/07 15:29:31;;;;;;;19.38;5.68;;;14.60;43.80;;;;;;6244468;28;20131;-74
2023/03/07 15:32:39;;;;;;;18.30;6.25;;;14.50;44.30;;;;;;6263752;28;20041;-73
2023/03/07 15:35:42;;;;;;;11.10;5.65;;;14.40;45.00;;;;;;6275110;28;20033;-71
2023/03/07 15:38:51;;;;;;;19.52;6.93;;;14.30;46.10;;;;;;6272910;28;20035;-71
2023/03/07 15:42:06;;;;;;;20.75;7.70;;;14.10;46.80;;;;;;6254954;28;20074;-74
2023/03/07 15:45:37;;;;;;;16.65;7.10;;;13.90;47.30;;;;;;6242687;28;20342;-72
2023/03/07 15:48:46;;;;;;;18.42;7.43;;;13.70;48.20;;;;;;6246142;28;20029;-73
2023/03/07 15:51:53;;;;;;;22.60;7.18;;;13.50;48.80;;;;;;6228200;28;20124;-73
2023/03/07 15:54:56;;;;;;;22.65;8.20;;;13.30;49.20;;;;;;6246548;28;20524;-71
2023/03/07 15:58:03;;;;;;;18.75;7.10;;;13.10;49.50;;;;;;6227818;28;20049;-72
2023/03/07 16:01:14;;;;;;;17.25;7.40;;;13.00;50.30;;;;;;6228474;28;20052;-73
2023/03/07 16:04:34;;;;;;;17.67;7.60;;;12.90;50.80;;;;;;6245870;28;20049;-71
2023/03/07 16:07:35;;;;;;;21.08;7.10;;;12.60;51.40;;;;;;6245597;28;20568;-73
2023/03/07 16:10:38;;;;;;;19.88;7.15;;;12.60;52.00;;;;;;6227584;28;20037;-74